createdAt,value
2019-05-17T00:01:34.446Z,22.30
2019-05-17T00:04:01.878Z,20.53
2019-05-17T00:06:29.281Z,21.57
2019-05-17T00:08:56.698Z,21.67
2019-05-17T00:11:24.161Z,21.77
2019-05-17T00:13:51.953Z,20.80
2019-05-17T00:16:19.301Z,19.23
2019-05-17T00:18:46.705Z,21.90
2019-05-17T00:21:14.117Z,21.30
2019-05-17T00:23:41.997Z,20.23
2019-05-17T00:26:09.388Z,21.87
2019-05-17T00:28:37.522Z,21.10
2019-05-17T00:31:06.655Z,20.13
2019-05-17T00:33:36.516Z,19.10
2019-05-17T00:36:03.785Z,20.00
2019-05-17T00:38:31.193Z,19.20
2019-05-17T00:40:58.581Z,19.47
2019-05-17T00:43:26.427Z,19.30
2019-05-17T00:45:53.806Z,20.77
2019-05-17T00:48:21.185Z,20.03
2019-05-17T00:50:53.427Z,20.50
2019-05-17T00:53:18.262Z,21.07
2019-05-17T00:55:46.756Z,20.33
2019-05-17T00:58:14.367Z,21.67
2019-05-17T01:00:41.726Z,19.13
2019-05-17T01:03:09.558Z,19.77
2019-05-17T01:05:37.218Z,21.37
2019-05-17T01:08:07.082Z,21.07
2019-05-17T01:10:33.936Z,22.27
2019-05-17T01:13:01.854Z,19.80
2019-05-17T01:15:29.332Z,19.77
2019-05-17T01:17:56.801Z,19.97
2019-05-17T01:20:24.266Z,19.10
2019-05-17T01:22:52.053Z,20.43
2019-05-17T01:25:19.421Z,19.50
2019-05-17T01:27:47.439Z,19.30
2019-05-17T01:30:17.532Z,18.33
2019-05-17T01:32:46.398Z,19.83
2019-05-17T01:35:16.521Z,20.67
2019-05-17T01:37:43.645Z,20.00
2019-05-17T01:40:11.916Z,19.33
2019-05-17T01:42:39.685Z,18.83
2019-05-17T01:45:08.626Z,18.90
2019-05-17T01:47:36.798Z,17.47
2019-05-17T01:50:06.849Z,19.23
2019-05-17T01:52:37.029Z,18.30
2019-05-17T01:55:06.510Z,18.40
2019-05-17T01:57:33.902Z,18.00
2019-05-17T02:00:01.314Z,17.57
2019-05-17T02:02:33.870Z,17.50
2019-05-17T02:05:01.728Z,19.70
2019-05-17T02:07:29.160Z,17.97
2019-05-17T02:09:56.949Z,18.60
2019-05-17T02:12:26.675Z,17.23
2019-05-17T02:14:54.285Z,17.77
2019-05-17T02:17:21.686Z,16.80
2019-05-17T02:19:49.102Z,18.07
2019-05-17T02:22:16.858Z,16.57
2019-05-17T02:24:46.456Z,17.63
2019-05-17T02:27:14.160Z,18.77
2019-05-17T02:29:42.411Z,16.77
2019-05-17T02:32:12.811Z,18.10
2019-05-17T02:34:43.004Z,16.37
2019-05-17T02:37:13.406Z,18.17
2019-05-17T02:39:57.109Z,18.07
2019-05-17T02:42:09.152Z,16.77
2019-05-17T02:44:37.006Z,17.57
2019-05-17T02:47:04.377Z,16.93
2019-05-17T02:49:33.021Z,16.83
2019-05-17T02:52:03.315Z,16.47
2019-05-17T02:54:32.782Z,17.27
2019-05-17T02:57:02.813Z,15.93
2019-05-17T02:59:28.940Z,15.30
2019-05-17T03:01:56.346Z,16.73
2019-05-17T03:04:24.046Z,16.73
2019-05-17T03:06:53.238Z,17.40
2019-05-17T03:09:22.846Z,15.90
2019-05-17T03:11:52.917Z,16.63
2019-05-17T03:14:19.311Z,15.87
2019-05-17T03:16:46.677Z,17.00
2019-05-17T03:19:14.164Z,16.60
2019-05-17T03:21:42.863Z,17.43
2019-05-17T03:24:13.704Z,16.50
2019-05-17T03:26:42.736Z,16.93
2019-05-17T03:29:09.189Z,17.97
2019-05-17T03:31:44.844Z,15.40
2019-05-17T03:34:07.468Z,15.70
2019-05-17T03:36:37.174Z,15.90
2019-05-17T03:39:06.007Z,15.93
2019-05-17T03:41:34.224Z,15.67
2019-05-17T03:44:03.220Z,14.57
2019-05-17T03:46:33.406Z,16.33
2019-05-17T03:49:03.487Z,14.60
2019-05-17T03:51:33.053Z,13.90
2019-05-17T03:54:02.140Z,15.70
2019-05-17T03:56:29.305Z,13.57
2019-05-17T03:58:56.661Z,14.37
2019-05-17T04:01:24.069Z,14.00
2019-05-17T04:03:52.985Z,13.50
2019-05-17T04:06:23.718Z,13.13
2019-05-17T04:08:52.645Z,11.17
2019-05-17T04:11:27.947Z,13.60
2019-05-17T04:13:48.763Z,13.03
2019-05-17T04:16:16.142Z,12.20
2019-05-17T04:18:43.922Z,12.73
2019-05-17T04:21:12.633Z,11.80
2019-05-17T04:23:42.867Z,13.23
2019-05-17T04:26:09.676Z,13.63
2019-05-17T04:28:37.085Z,11.43
2019-05-17T04:31:04.869Z,13.93
2019-05-17T04:33:33.709Z,12.50
2019-05-17T04:36:02.648Z,11.33
2019-05-17T04:38:33.120Z,13.50
2019-05-17T04:41:03.212Z,12.20
2019-05-17T04:43:33.398Z,11.10
2019-05-17T04:46:02.818Z,12.07
2019-05-17T04:48:32.463Z,11.90
2019-05-17T04:51:02.245Z,12.57
2019-05-17T04:53:28.563Z,12.83
2019-05-17T04:55:55.962Z,11.83
2019-05-17T04:58:23.720Z,11.93
2019-05-17T05:00:53.680Z,12.63
2019-05-17T05:03:22.996Z,12.43
2019-05-17T05:05:53.186Z,11.77
2019-05-17T05:08:22.227Z,11.43
2019-05-17T05:10:48.783Z,11.23
2019-05-17T05:13:16.166Z,12.40
2019-05-17T05:15:44.769Z,10.33
2019-05-17T05:18:13.729Z,11.80
2019-05-17T05:20:43.535Z,11.83
2019-05-17T05:23:12.981Z,10.80
2019-05-17T05:25:42.904Z,11.67
2019-05-17T05:28:11.480Z,10.50
2019-05-17T05:30:41.940Z,10.33
2019-05-17T05:33:08.752Z,10.17
2019-05-17T05:35:36.651Z,10.30
2019-05-17T05:38:04.115Z,10.27
2019-05-17T05:40:32.566Z,9.53
2019-05-17T05:43:02.148Z,9.77
2019-05-17T05:45:31.928Z,9.20
2019-05-17T05:47:58.911Z,9.90
2019-05-17T05:50:26.424Z,10.97
2019-05-17T05:52:53.860Z,8.20
2019-05-17T05:55:23.395Z,9.17
2019-05-17T05:57:52.194Z,8.73
2019-05-17T06:00:22.102Z,7.77
2019-05-17T06:02:52.207Z,8.57
2019-05-17T06:05:21.905Z,7.73
2019-05-17T06:07:49.519Z,8.67
2019-05-17T06:10:16.918Z,8.13
2019-05-17T06:12:44.285Z,8.47
2019-05-17T06:15:12.829Z,8.70
2019-05-17T06:17:42.960Z,9.43
2019-05-17T06:20:11.731Z,7.70
2019-05-17T06:22:39.294Z,9.70
2019-05-17T06:25:07.759Z,8.77
2019-05-17T06:27:34.980Z,8.43
2019-05-17T06:30:02.565Z,7.73
2019-05-17T06:32:31.703Z,8.40
2019-05-17T06:35:01.689Z,7.90
2019-05-17T06:37:28.646Z,7.27
2019-05-17T06:39:56.085Z,8.27
2019-05-17T06:42:37.244Z,7.90
2019-05-17T06:44:53.446Z,7.33
2019-05-17T06:47:22.563Z,7.40
2019-05-17T06:49:50.599Z,7.63
2019-05-17T06:52:19.373Z,6.53
2019-05-17T06:54:46.875Z,6.77
2019-05-17T06:57:14.516Z,6.53
2019-05-17T06:59:41.862Z,6.30
2019-05-17T07:02:10.451Z,6.23
2019-05-17T07:04:39.534Z,6.77
2019-05-17T07:07:25.036Z,6.70
2019-05-17T07:09:52.517Z,6.40
2019-05-17T07:12:20.454Z,7.10
2019-05-17T07:14:50.559Z,6.40
2019-05-17T07:17:19.585Z,7.07
2019-05-17T07:19:46.785Z,6.40
2019-05-17T07:22:14.545Z,5.97
2019-05-17T07:24:41.947Z,6.37
2019-05-17T07:27:09.997Z,7.03
2019-05-17T07:29:40.180Z,6.17
2019-05-17T07:32:09.689Z,6.93
2019-05-17T07:34:36.620Z,6.93
2019-05-17T07:37:03.869Z,6.60
2019-05-17T07:39:31.085Z,8.27
2019-05-17T07:41:59.953Z,7.67
2019-05-17T07:44:29.534Z,8.30
2019-05-17T07:46:56.803Z,7.97
2019-05-17T07:49:23.977Z,7.47
2019-05-17T07:51:51.213Z,8.53
2019-05-17T07:54:19.721Z,8.23
2019-05-17T07:56:47.047Z,7.80
2019-05-17T07:59:14.285Z,7.10
2019-05-17T08:01:41.477Z,8.37
2019-05-17T08:04:09.988Z,8.20
2019-05-17T08:06:40.010Z,8.60
2019-05-17T08:09:06.853Z,7.83
2019-05-17T08:11:34.057Z,7.70
2019-05-17T08:14:01.640Z,7.50
2019-05-17T08:16:30.411Z,8.17
2019-05-17T08:19:00.259Z,8.90
2019-05-17T08:21:27.270Z,8.10
2019-05-17T08:23:54.459Z,9.23
2019-05-17T08:26:21.673Z,8.47
2019-05-17T08:28:50.277Z,9.13
2019-05-17T08:31:20.020Z,8.53
2019-05-17T08:33:46.841Z,9.13
2019-05-17T08:36:14.062Z,8.47
2019-05-17T08:38:41.700Z,9.07
2019-05-17T08:41:10.519Z,9.70
2019-05-17T08:43:45.774Z,9.63
2019-05-17T08:46:08.168Z,9.57
2019-05-17T08:48:37.049Z,8.80
2019-05-17T08:51:04.306Z,9.73
2019-05-17T08:53:31.507Z,8.87
2019-05-17T08:56:00.994Z,7.83
2019-05-17T08:58:29.732Z,9.07
2019-05-17T09:00:57.110Z,8.83
2019-05-17T09:03:24.318Z,9.40
2019-05-17T09:05:52.645Z,9.20
2019-05-17T09:08:20.747Z,8.53
2019-05-17T09:10:50.480Z,8.63
2019-05-17T09:13:19.585Z,8.80
2019-05-17T09:15:49.329Z,8.63
2019-05-17T09:18:16.405Z,8.50
2019-05-17T09:20:43.606Z,7.87
2019-05-17T09:23:10.817Z,8.03
2019-05-17T09:25:39.790Z,8.10
2019-05-17T09:28:09.883Z,7.37
2019-05-17T09:30:36.572Z,7.43
2019-05-17T09:33:03.783Z,7.37
2019-05-17T09:35:31.494Z,7.47
2019-05-17T09:38:00.499Z,7.47
2019-05-17T09:40:29.288Z,6.43
2019-05-17T09:43:34.301Z,7.27
2019-05-17T09:46:01.940Z,7.13
2019-05-17T09:48:30.590Z,7.80
2019-05-17T09:50:59.897Z,7.67
2019-05-17T09:53:27.557Z,7.93
2019-05-17T09:55:54.753Z,7.77
2019-05-17T09:58:21.956Z,7.93
2019-05-17T10:00:49.631Z,8.17
2019-05-17T10:03:16.883Z,7.77
2019-05-17T10:05:44.209Z,7.40
2019-05-17T10:08:11.789Z,6.97
2019-05-17T10:10:40.267Z,7.67
2019-05-17T10:13:09.777Z,8.70
2019-05-17T10:15:36.799Z,8.30
2019-05-17T10:18:04.298Z,8.77
2019-05-17T10:20:31.506Z,7.47
2019-05-17T10:22:59.619Z,7.80
2019-05-17T10:25:29.368Z,8.80
2019-05-17T10:27:56.618Z,8.40
2019-05-17T10:30:23.810Z,9.00
2019-05-17T10:32:51.025Z,8.47
2019-05-17T10:35:19.969Z,9.23
2019-05-17T10:37:50.361Z,8.97
2019-05-17T10:40:20.364Z,10.43
2019-05-17T10:42:47.018Z,9.70
2019-05-17T10:45:22.581Z,10.37
2019-05-17T10:47:50.313Z,9.80
2019-05-17T10:50:20.402Z,9.27
2019-05-17T10:52:47.227Z,9.37
2019-05-17T10:55:14.813Z,9.20
2019-05-17T10:57:42.010Z,9.73
2019-05-17T11:00:10.456Z,8.97
2019-05-17T11:02:37.756Z,9.83
2019-05-17T11:05:05.480Z,9.27
2019-05-17T11:07:32.724Z,8.77
2019-05-17T11:10:00.598Z,7.80
2019-05-17T11:12:28.185Z,8.07
2019-05-17T11:15:10.406Z,7.73
2019-05-17T11:17:25.261Z,8.13
2019-05-17T11:19:52.454Z,7.30
2019-05-17T11:22:22.740Z,8.13
2019-05-17T11:24:49.980Z,7.20
2019-05-17T11:27:19.255Z,8.13
2019-05-17T11:29:46.317Z,6.77
2019-05-17T11:32:13.839Z,7.50
2019-05-17T11:34:41.067Z,7.07
2019-05-17T11:37:08.251Z,5.67
2019-05-17T11:39:35.752Z,6.23
2019-05-17T11:42:03.260Z,8.13
2019-05-17T11:44:30.491Z,7.53
2019-05-17T11:46:57.754Z,8.03
2019-05-17T11:49:25.151Z,6.33
2019-05-17T11:51:53.599Z,7.40
2019-05-17T11:54:20.854Z,7.57
2019-05-17T11:56:48.058Z,7.33
2019-05-17T11:59:15.281Z,7.17
2019-05-17T12:01:42.990Z,6.83
2019-05-17T12:04:10.213Z,6.73
2019-05-17T12:06:37.515Z,6.70
2019-05-17T12:09:05.694Z,6.40
2019-05-17T12:11:32.923Z,6.20
2019-05-17T12:14:00.108Z,7.47
2019-05-17T12:16:27.714Z,6.60
2019-05-17T12:18:54.929Z,6.10
2019-05-17T12:21:22.131Z,5.70
2019-05-17T12:23:49.374Z,6.07
2019-05-17T12:26:16.877Z,4.83
2019-05-17T12:28:44.094Z,5.80
2019-05-17T12:31:11.286Z,5.30
2019-05-17T12:33:38.468Z,4.73
2019-05-17T12:36:06.280Z,5.43
2019-05-17T12:38:33.499Z,5.10
2019-05-17T12:41:00.696Z,5.00
2019-05-17T12:43:27.898Z,5.87
2019-05-17T12:46:00.595Z,5.50
2019-05-17T12:48:24.764Z,6.20
2019-05-17T12:50:51.971Z,5.43
2019-05-17T12:53:20.261Z,5.83
2019-05-17T12:55:47.497Z,5.73
2019-05-17T12:58:14.736Z,5.20
2019-05-17T13:00:42.383Z,4.40
2019-05-17T13:03:09.645Z,4.13
2019-05-17T13:05:36.875Z,3.90
2019-05-17T13:08:04.579Z,4.37
2019-05-17T13:10:31.795Z,4.20
2019-05-17T13:12:59.023Z,3.60
2019-05-17T13:15:26.275Z,4.83
2019-05-17T13:17:53.980Z,5.37
2019-05-17T13:20:21.288Z,7.00
2019-05-17T13:22:48.537Z,6.97
2019-05-17T13:25:16.155Z,6.10
2019-05-17T13:27:43.433Z,5.30
2019-05-17T13:30:11.389Z,5.67
2019-05-17T13:32:38.663Z,5.27
2019-05-17T13:35:06.549Z,5.60
2019-05-17T13:37:33.745Z,6.53
2019-05-17T13:40:00.960Z,7.13
2019-05-17T13:42:29.982Z,6.50
2019-05-17T13:44:57.143Z,6.70
2019-05-17T13:47:24.341Z,7.03
2019-05-17T13:49:51.565Z,7.23
2019-05-17T13:52:19.359Z,8.63
2019-05-17T13:54:47.902Z,7.97
2019-05-17T13:57:15.115Z,6.80
2019-05-17T13:59:42.422Z,6.37
2019-05-17T14:02:09.620Z,7.67
2019-05-17T14:04:37.298Z,7.87
2019-05-17T14:07:04.529Z,7.27
2019-05-17T14:09:31.788Z,7.13
2019-05-17T14:11:58.983Z,8.27
2019-05-17T14:14:26.669Z,8.93
2019-05-17T14:16:53.959Z,9.20
2019-05-17T14:19:21.535Z,11.50
2019-05-17T14:21:48.729Z,9.50
2019-05-17T14:24:15.930Z,9.70
2019-05-17T14:26:43.126Z,10.17
2019-05-17T14:29:10.348Z,9.20
2019-05-17T14:31:37.578Z,9.80
2019-05-17T14:34:04.872Z,10.80
2019-05-17T14:36:32.189Z,9.50
2019-05-17T14:38:59.681Z,11.00
2019-05-17T14:41:26.871Z,10.23
2019-05-17T14:43:54.121Z,10.37
2019-05-17T14:46:21.339Z,10.47
2019-05-17T14:48:48.548Z,11.53
2019-05-17T14:51:15.758Z,11.03
2019-05-17T14:53:42.989Z,11.40
2019-05-17T14:56:10.738Z,11.53
2019-05-17T14:58:38.009Z,11.43
2019-05-17T15:01:05.216Z,11.57
2019-05-17T15:03:32.479Z,10.67
2019-05-17T15:06:00.108Z,11.50
2019-05-17T15:08:27.286Z,11.70
2019-05-17T15:10:54.499Z,10.57
2019-05-17T15:13:21.711Z,11.90
2019-05-17T15:15:49.211Z,11.03
2019-05-17T15:18:16.425Z,11.37
2019-05-17T15:20:43.660Z,11.77
2019-05-17T15:23:11.268Z,11.00
2019-05-17T15:25:38.607Z,10.30
2019-05-17T15:28:05.851Z,10.83
2019-05-17T15:30:33.049Z,10.20
2019-05-17T15:33:02.897Z,11.27
2019-05-17T15:35:30.086Z,11.00
2019-05-17T15:37:57.287Z,11.03
2019-05-17T15:40:24.505Z,10.60
2019-05-17T15:42:51.782Z,10.83
2019-05-17T15:45:18.978Z,11.07
2019-05-17T15:47:46.521Z,10.63
2019-05-17T15:50:14.234Z,11.17
2019-05-17T15:52:41.446Z,10.13
2019-05-17T15:55:08.756Z,11.50
2019-05-17T15:57:37.135Z,11.07
2019-05-17T16:00:04.775Z,10.73
2019-05-17T16:02:32.057Z,9.17
2019-05-17T16:04:59.334Z,8.90
2019-05-17T16:07:27.017Z,10.17
2019-05-17T16:09:54.389Z,10.20
2019-05-17T16:12:21.638Z,10.43
2019-05-17T16:14:48.866Z,9.40
2019-05-17T16:17:16.078Z,10.57
2019-05-17T16:19:43.306Z,9.90
2019-05-17T16:22:10.520Z,8.87
2019-05-17T16:24:38.205Z,9.33
2019-05-17T16:27:05.435Z,9.93
2019-05-17T16:29:32.644Z,9.03
2019-05-17T16:31:59.885Z,10.07
2019-05-17T16:34:27.456Z,8.93
2019-05-17T16:36:54.646Z,8.43
2019-05-17T16:39:21.830Z,9.47
2019-05-17T16:41:49.034Z,8.50
2019-05-17T16:44:16.678Z,9.43
2019-05-17T16:46:43.858Z,8.23
2019-05-17T16:49:11.111Z,9.67
2019-05-17T16:51:38.290Z,9.27
2019-05-17T16:54:05.960Z,10.43
2019-05-17T16:56:33.175Z,9.00
2019-05-17T16:59:01.305Z,9.10
2019-05-17T17:01:28.497Z,9.20
2019-05-17T17:03:56.118Z,9.77
2019-05-17T17:06:23.318Z,8.23
2019-05-17T17:08:50.513Z,8.47
2019-05-17T17:11:18.114Z,8.50
2019-05-17T17:13:45.335Z,8.93
2019-05-17T17:16:12.518Z,8.50
2019-05-17T17:18:39.758Z,8.27
2019-05-17T17:21:07.331Z,8.70
2019-05-17T17:23:35.343Z,8.10
2019-05-17T17:26:02.544Z,7.40
2019-05-17T17:28:29.739Z,8.00
2019-05-17T17:30:57.206Z,8.00
2019-05-17T17:33:24.412Z,7.90
2019-05-17T17:35:51.726Z,7.80
2019-05-17T17:38:18.919Z,8.43
2019-05-17T17:40:46.576Z,7.93
2019-05-17T17:43:15.743Z,7.37
2019-05-17T17:45:42.916Z,8.73
2019-05-17T17:48:10.133Z,9.13
2019-05-17T17:50:37.655Z,8.10
2019-05-17T17:53:05.860Z,8.13
2019-05-17T17:55:33.207Z,8.43
2019-05-17T17:58:00.486Z,8.67
2019-05-17T18:00:28.057Z,7.87
2019-05-17T18:02:55.232Z,8.00
2019-05-17T18:05:25.042Z,8.40
2019-05-17T18:07:51.532Z,8.40
2019-05-17T18:10:29.689Z,8.00
2019-05-17T18:12:56.919Z,7.53
2019-05-17T18:15:38.853Z,6.87
2019-05-17T18:18:06.170Z,7.57
2019-05-17T18:20:33.451Z,7.33
2019-05-17T18:23:00.687Z,6.73
2019-05-17T18:25:28.153Z,7.07
2019-05-17T18:27:55.337Z,6.87
2019-05-17T18:30:22.569Z,6.63
2019-05-17T18:32:49.790Z,7.60
2019-05-17T18:35:17.477Z,7.80
2019-05-17T18:37:44.773Z,6.90
2019-05-17T18:40:12.073Z,7.43
2019-05-17T18:42:39.291Z,7.57
2019-05-17T18:45:08.625Z,6.83
2019-05-17T18:47:35.817Z,6.70
2019-05-17T18:50:03.454Z,6.47
2019-05-17T18:52:30.810Z,7.10
2019-05-17T18:54:58.389Z,7.00
2019-05-17T18:57:25.583Z,6.23
2019-05-17T18:59:53.299Z,6.70
2019-05-17T19:02:21.155Z,6.10
2019-05-17T19:04:48.801Z,6.63
2019-05-17T19:07:16.018Z,7.40
2019-05-17T19:09:43.232Z,6.90
2019-05-17T19:12:10.505Z,6.83
2019-05-17T19:14:42.855Z,6.70
2019-05-17T19:17:07.144Z,6.70
2019-05-17T19:19:34.341Z,7.17
2019-05-17T19:22:01.598Z,6.90
2019-05-17T19:24:29.269Z,7.40
2019-05-17T19:26:56.473Z,6.50
2019-05-17T19:29:23.695Z,7.30
2019-05-17T19:31:50.906Z,7.93
2019-05-17T19:34:18.388Z,6.53
2019-05-17T19:36:45.646Z,6.77
2019-05-17T19:39:12.870Z,7.87
2019-05-17T19:41:40.080Z,7.80
2019-05-17T19:44:07.752Z,7.57
2019-05-17T19:46:34.964Z,7.50
2019-05-17T19:49:02.166Z,8.07
2019-05-17T19:51:29.386Z,7.00
2019-05-17T19:53:56.934Z,7.13
2019-05-17T19:56:24.128Z,7.57
2019-05-17T19:58:51.329Z,7.33
2019-05-17T20:01:18.520Z,7.27
2019-05-17T20:03:47.178Z,8.73
2019-05-17T20:06:14.684Z,8.10
2019-05-17T20:08:42.216Z,8.00
2019-05-17T20:11:09.822Z,8.17
2019-05-17T20:13:38.813Z,8.37
2019-05-17T20:16:05.976Z,8.53
2019-05-17T20:18:33.182Z,8.53
2019-05-17T20:21:00.824Z,7.77
2019-05-17T20:23:28.026Z,8.40
2019-05-17T20:25:55.250Z,8.53
2019-05-17T20:28:22.495Z,9.33
2019-05-17T20:30:50.058Z,9.53
2019-05-17T20:33:19.230Z,8.63
2019-05-17T20:35:46.406Z,9.17
2019-05-17T20:38:13.602Z,9.80
2019-05-17T20:40:41.086Z,8.47
2019-05-17T20:43:08.318Z,9.20
2019-05-17T20:45:35.519Z,8.80
2019-05-17T20:48:02.713Z,9.43
2019-05-17T20:50:30.403Z,9.87
2019-05-17T20:52:57.559Z,9.70
2019-05-17T20:55:27.323Z,10.00
2019-05-17T20:57:54.685Z,9.97
2019-05-17T21:00:22.299Z,10.03
2019-05-17T21:02:49.491Z,10.07
2019-05-17T21:05:17.266Z,10.10
2019-05-17T21:07:44.634Z,10.17
2019-05-17T21:10:12.809Z,10.10
2019-05-17T21:12:40.050Z,10.27
2019-05-17T21:15:07.601Z,10.33
2019-05-17T21:17:34.799Z,10.70
2019-05-17T21:20:02.350Z,10.30
2019-05-17T21:22:29.604Z,10.37
2019-05-17T21:24:56.841Z,10.70
2019-05-17T21:27:24.042Z,11.20
2019-05-17T21:29:51.526Z,10.50
2019-05-17T21:32:18.710Z,11.47
2019-05-17T21:34:45.926Z,11.67
2019-05-17T21:37:13.125Z,12.10
2019-05-17T21:39:42.047Z,11.67
2019-05-17T21:42:09.573Z,10.33
2019-05-17T21:44:36.790Z,11.97
2019-05-17T21:47:05.111Z,11.67
2019-05-17T21:49:32.827Z,12.27
2019-05-17T21:52:00.020Z,11.97
2019-05-17T21:54:27.249Z,11.90
2019-05-17T21:56:54.494Z,11.93
2019-05-17T21:59:21.999Z,12.20
2019-05-17T22:01:49.309Z,12.90
2019-05-17T22:04:16.495Z,12.00
2019-05-17T22:06:43.779Z,13.50
2019-05-17T22:09:11.502Z,12.97
2019-05-17T22:11:40.622Z,12.70
2019-05-17T22:14:08.300Z,13.50
2019-05-17T22:16:35.554Z,13.00
2019-05-17T22:19:03.416Z,13.47
2019-05-17T22:21:30.676Z,12.40
2019-05-17T22:23:57.931Z,11.90
2019-05-17T22:26:25.406Z,12.97
2019-05-17T22:28:52.961Z,13.03
2019-05-17T22:31:20.422Z,11.77
2019-05-17T22:33:47.765Z,11.47
2019-05-17T22:36:15.117Z,12.50
2019-05-17T22:38:42.687Z,12.70
2019-05-17T22:41:10.762Z,12.53
2019-05-17T22:43:38.058Z,12.40
2019-05-17T22:46:05.314Z,13.20
2019-05-17T22:48:32.893Z,13.00
2019-05-17T22:51:00.060Z,13.90
2019-05-17T22:53:27.262Z,14.03
2019-05-17T22:55:54.555Z,13.23
2019-05-17T22:58:22.055Z,12.60
2019-05-17T23:00:49.250Z,13.10
2019-05-17T23:03:16.471Z,13.50
2019-05-17T23:05:43.667Z,12.53
2019-05-17T23:08:11.500Z,12.60
2019-05-17T23:10:39.511Z,12.47
2019-05-17T23:13:06.685Z,12.47
2019-05-17T23:15:45.271Z,12.20
2019-05-17T23:18:12.550Z,12.20
2019-05-17T23:20:39.743Z,13.80
2019-05-17T23:23:06.984Z,14.30
2019-05-17T23:25:34.639Z,14.00
2019-05-17T23:28:01.825Z,12.50
2019-05-17T23:30:29.023Z,14.03
2019-05-17T23:32:56.235Z,13.53
2019-05-17T23:35:23.898Z,13.30
2019-05-17T23:37:51.127Z,13.27
2019-05-17T23:40:18.451Z,12.20
2019-05-17T23:42:45.639Z,13.63
2019-05-17T23:45:13.439Z,14.23
2019-05-17T23:47:40.628Z,14.27
2019-05-17T23:50:08.335Z,13.10
2019-05-17T23:52:35.568Z,13.23
2019-05-17T23:55:03.777Z,13.17
2019-05-17T23:57:30.947Z,12.73
2019-05-17T23:59:58.147Z,13.13
